Time;durP1;ratioP1;P1;durP2;ratioP2;P2;SDS_P1;SDS_P2;PMS_P1;PMS_P2;Temp;Humidity;BMP_temperature;BMP_pressure;BME280_temperature;BME280_humidity;BME280_pressure;Samples;Min_cycle;Max_cycle;Signal;HPM_P1;HPM_P2
2024/03/06 00:01:51;;;;;;;0.77;0.77;;;4.80;99.90;;;;;;4962296;28;20046;-76
2024/03/06 00:04:17;;;;;;;0.38;0.30;;;4.70;99.90;;;;;;4962115;28;20031;-78
2024/03/06 00:06:43;;;;;;;3.22;2.92;;;4.80;99.90;;;;;;4967605;28;20034;-78
2024/03/06 00:09:09;;;;;;;1.00;0.85;;;4.80;99.90;;;;;;4966275;28;20058;-78
2024/03/06 00:11:36;;;;;;;1.00;1.00;;;4.70;99.90;;;;;;4967864;28;20081;-77
2024/03/06 00:14:05;;;;;;;2.10;1.95;;;4.70;99.90;;;;;;4958414;28;20041;-76
2024/03/06 00:16:31;;;;;;;1.80;1.30;;;4.70;99.90;;;;;;4963186;28;20035;-77
2024/03/06 00:18:58;;;;;;;0.68;0.68;;;4.70;99.90;;;;;;4965427;28;20043;-77
2024/03/06 00:21:24;;;;;;;0.80;0.80;;;4.70;99.90;;;;;;4964830;28;20443;-77
2024/03/06 00:23:50;;;;;;;1.10;0.98;;;4.70;99.90;;;;;;4965485;28;20031;-75
2024/03/06 00:26:16;;;;;;;0.90;0.90;;;4.70;99.90;;;;;;4965398;28;20042;-77
2024/03/06 00:28:42;;;;;;;5.78;1.15;;;4.80;99.90;;;;;;4964793;28;20063;-76
2024/03/06 00:31:08;;;;;;;0.45;0.45;;;4.70;99.90;;;;;;4961478;28;20031;-76
2024/03/06 00:33:35;;;;;;;1.15;1.05;;;4.80;99.90;;;;;;4963936;28;20396;-76
2024/03/06 00:36:01;;;;;;;2.65;1.85;;;4.80;99.90;;;;;;4959083;28;20464;-77
2024/03/06 00:38:27;;;;;;;4.40;1.30;;;4.80;99.90;;;;;;4966122;28;20034;-76
2024/03/06 00:40:53;;;;;;;0.65;0.65;;;4.80;99.90;;;;;;4962055;28;20048;-76
2024/03/06 00:43:20;;;;;;;3.42;1.75;;;4.80;99.90;;;;;;4967204;28;20058;-77
2024/03/06 00:45:46;;;;;;;5.25;1.85;;;4.80;99.90;;;;;;4940365;28;20047;-76
2024/03/06 00:48:12;;;;;;;0.80;0.80;;;4.70;99.90;;;;;;4940501;28;20047;-76
2024/03/06 00:50:39;;;;;;;0.17;0.17;;;4.70;99.90;;;;;;4966660;28;20034;-76
2024/03/06 00:53:06;;;;;;;1.50;1.40;;;4.70;99.90;;;;;;4966646;28;20477;-78
2024/03/06 00:55:32;;;;;;;0.70;0.70;;;4.70;1.00;;;;;;4961959;28;20038;-77
2024/03/06 00:57:59;;;;;;;14.02;1.88;;;4.70;1.00;;;;;;4966291;28;20026;-78
2024/03/06 01:00:25;;;;;;;2.40;1.42;;;4.70;1.00;;;;;;4968475;28;20039;-77
2024/03/06 01:02:51;;;;;;;2.40;2.17;;;4.80;1.00;;;;;;4965179;28;20465;-76
2024/03/06 01:05:17;;;;;;;4.13;0.88;;;4.80;1.00;;;;;;4964379;28;20034;-77
2024/03/06 01:07:43;;;;;;;0.88;0.63;;;4.80;1.00;;;;;;4969876;28;20047;-77
2024/03/06 01:10:12;;;;;;;4.85;1.25;;;4.80;1.00;;;;;;4968738;28;20045;-76
2024/03/06 01:12:38;;;;;;;1.02;0.95;;;4.80;1.00;;;;;;4964074;28;20039;-77
2024/03/06 01:15:05;;;;;;;1.10;1.02;;;4.80;1.00;;;;;;4968405;28;20422;-77
2024/03/06 01:17:31;;;;;;;1.27;1.17;;;4.70;1.00;;;;;;4964555;28;20032;-77
2024/03/06 01:19:59;;;;;;;0.73;0.70;;;4.70;1.00;;;;;;4957443;28;20046;-77
2024/03/06 01:22:25;;;;;;;1.38;1.27;;;4.70;1.00;;;;;;4968252;28;20046;-77
2024/03/06 01:24:51;;;;;;;0.63;0.63;;;4.70;1.00;;;;;;4969422;28;20389;-76
2024/03/06 01:27:17;;;;;;;2.72;1.67;;;4.60;1.00;;;;;;4951856;28;20039;-77
2024/03/06 01:29:44;;;;;;;0.52;0.52;;;4.60;1.00;;;;;;4967373;28;20050;-77
2024/03/06 01:32:10;;;;;;;1.55;1.33;;;4.50;1.00;;;;;;4969599;28;20027;-77
2024/03/06 01:34:37;;;;;;;2.65;1.85;;;4.50;1.00;;;;;;4961763;28;20031;-77
2024/03/06 01:37:03;;;;;;;1.02;1.02;;;4.50;1.00;;;;;;4968554;28;20035;-77
2024/03/06 01:39:29;;;;;;;3.15;2.20;;;4.30;1.00;;;;;;4969002;28;20050;-76
2024/03/06 01:41:55;;;;;;;0.55;0.55;;;4.20;1.00;;;;;;4970419;28;20039;-75
2024/03/06 01:44:22;;;;;;;1.40;1.35;;;4.10;1.00;;;;;;4964230;28;20043;-76
2024/03/06 01:46:48;;;;;;;0.40;0.40;;;4.00;1.00;;;;;;4967741;28;20388;-77
2024/03/06 01:49:15;;;;;;;3.53;2.35;;;4.00;1.00;;;;;;4966519;28;20034;-76
2024/03/06 01:51:48;;;;;;;2.58;1.17;;;3.90;76.40;;;;;;4967403;28;20035;-77
2024/03/06 01:54:15;;;;;;;0.63;0.43;;;3.90;99.90;;;;;;4966689;28;20058;-77
2024/03/06 01:56:46;;;;;;;1.90;1.73;;;3.80;99.90;;;;;;4968474;28;20043;-77
2024/03/06 01:59:15;;;;;;;2.72;2.47;;;3.70;99.90;;;;;;4965379;28;20123;-77
2024/03/06 02:01:41;;;;;;;1.15;1.05;;;3.70;99.90;;;;;;4962860;28;20031;-77
2024/03/06 02:04:11;;;;;;;0.32;0.32;;;3.70;99.90;;;;;;4962692;28;20035;-78
2024/03/06 02:06:41;;;;;;;1.50;1.40;;;3.60;99.90;;;;;;4966631;28;20042;-77
2024/03/06 02:09:09;;;;;;;2.63;1.33;;;3.50;99.90;;;;;;4962948;28;20382;-77
2024/03/06 02:11:36;;;;;;;2.85;2.38;;;3.30;99.90;;;;;;4969547;28;20047;-77
2024/03/06 02:14:09;;;;;;;0.95;0.93;;;3.20;99.90;;;;;;4965306;28;20047;-76
2024/03/06 02:16:41;;;;;;;2.67;2.50;;;3.10;99.90;;;;;;4962014;28;20043;-77
2024/03/06 02:19:08;;;;;;;0.65;0.65;;;3.00;99.90;;;;;;4962704;28;20035;-76
2024/03/06 02:21:34;;;;;;;0.30;0.30;;;3.00;99.90;;;;;;4968912;28;20031;-77
2024/03/06 02:24:00;;;;;;;1.10;1.00;;;3.00;99.90;;;;;;4966231;28;20373;-77
2024/03/06 02:26:27;;;;;;;1.08;1.00;;;3.00;99.90;;;;;;4966778;28;20030;-76
2024/03/06 02:28:54;;;;;;;0.98;0.98;;;3.10;99.90;;;;;;4962952;28;20034;-76
2024/03/06 02:31:22;;;;;;;4.07;1.35;;;3.10;99.90;;;;;;4960820;28;20058;-77
2024/03/06 02:33:49;;;;;;;8.35;4.30;;;3.10;99.90;;;;;;4962479;28;20030;-77
2024/03/06 02:36:17;;;;;;;10.43;4.05;;;3.20;99.90;;;;;;4963980;28;20649;-77
2024/03/06 02:38:44;;;;;;;4.10;2.47;;;3.20;99.90;;;;;;4970700;28;20043;-78
2024/03/06 02:41:11;;;;;;;2.13;2.03;;;3.20;99.90;;;;;;4968119;28;20051;-77
2024/03/06 02:43:37;;;;;;;8.63;2.95;;;3.20;99.90;;;;;;4965700;28;20733;-75
2024/03/06 02:46:04;;;;;;;1.90;1.70;;;3.10;99.90;;;;;;4962680;28;20392;-77
2024/03/06 02:48:30;;;;;;;3.53;3.33;;;3.00;99.90;;;;;;4971032;28;20035;-77
2024/03/06 02:50:57;;;;;;;5.70;4.15;;;3.00;99.90;;;;;;4964976;28;20031;-75
2024/03/06 02:53:23;;;;;;;2.65;2.10;;;2.90;99.90;;;;;;4966776;28;20476;-77
2024/03/06 02:55:49;;;;;;;2.75;2.28;;;2.90;99.90;;;;;;4968218;28;20037;-77
2024/03/06 02:58:18;;;;;;;3.95;2.85;;;2.90;99.90;;;;;;4963615;28;20606;-77
2024/03/06 03:00:45;;;;;;;2.20;1.48;;;2.90;99.90;;;;;;4963242;28;20035;-75
2024/03/06 03:03:11;;;;;;;0.93;0.93;;;2.90;99.90;;;;;;4978596;28;20054;-77
2024/03/06 03:05:39;;;;;;;0.85;0.85;;;2.90;99.90;;;;;;4956256;28;20385;-76
2024/03/06 03:08:06;;;;;;;10.55;2.35;;;2.90;99.90;;;;;;4969272;28;20031;-77
2024/03/06 03:10:34;;;;;;;15.60;1.10;;;2.90;99.90;;;;;;4966597;28;20374;-77
2024/03/06 03:13:01;;;;;;;1.50;1.33;;;2.90;99.90;;;;;;4966264;28;20046;-76
2024/03/06 03:15:27;;;;;;;0.80;0.45;;;2.90;99.90;;;;;;4963736;28;20380;-77
2024/03/06 03:17:53;;;;;;;9.52;1.23;;;2.80;99.90;;;;;;4962321;28;20480;-77
2024/03/06 03:20:20;;;;;;;4.35;1.73;;;2.80;99.90;;;;;;4965829;28;20786;-77
2024/03/06 03:22:46;;;;;;;1.33;1.15;;;2.90;99.90;;;;;;4948981;28;20412;-77
2024/03/06 03:25:14;;;;;;;1.65;1.10;;;2.80;99.90;;;;;;4968582;28;20031;-77
2024/03/06 03:27:41;;;;;;;0.20;0.20;;;2.80;99.90;;;;;;4966815;28;20030;-77
2024/03/06 03:30:08;;;;;;;6.30;1.83;;;2.70;99.90;;;;;;4963934;28;20046;-77
2024/03/06 03:32:35;;;;;;;0.30;0.30;;;2.70;99.90;;;;;;4965282;28;20035;-77
2024/03/06 03:35:01;;;;;;;3.58;2.80;;;2.70;99.90;;;;;;4965560;28;20412;-76
2024/03/06 03:37:28;;;;;;;1.55;1.45;;;2.80;99.90;;;;;;4968001;28;20035;-76
2024/03/06 03:39:54;;;;;;;0.80;0.65;;;2.90;99.90;;;;;;4967998;28;20042;-76
2024/03/06 03:42:20;;;;;;;3.30;1.30;;;2.90;99.90;;;;;;4954129;28;20050;-76
2024/03/06 03:44:46;;;;;;;0.50;0.50;;;2.80;99.90;;;;;;4961549;28;20042;-76
2024/03/06 03:47:12;;;;;;;2.50;1.98;;;2.80;99.90;;;;;;4960535;28;20050;-76
2024/03/06 03:49:39;;;;;;;1.40;1.30;;;2.70;99.90;;;;;;4965697;28;20035;-76
2024/03/06 03:52:05;;;;;;;1.27;1.08;;;2.70;99.90;;;;;;4947977;28;20050;-79
2024/03/06 03:54:31;;;;;;;5.85;1.73;;;2.70;99.90;;;;;;4965248;28;20035;-78
2024/03/06 03:56:59;;;;;;;1.75;0.85;;;2.70;99.90;;;;;;4955370;28;20046;-78
2024/03/06 03:59:25;;;;;;;0.40;0.40;;;2.60;99.90;;;;;;4963468;28;20069;-78
2024/03/06 04:01:52;;;;;;;0.50;0.50;;;2.60;95.80;;;;;;4961119;28;20039;-78
2024/03/06 04:04:18;;;;;;;0.35;0.35;;;2.50;99.90;;;;;;4956540;28;20107;-78
2024/03/06 04:06:45;;;;;;;1.45;1.35;;;2.50;99.90;;;;;;4956797;28;20034;-78
2024/03/06 04:09:11;;;;;;;5.28;4.20;;;2.40;99.90;;;;;;4972085;28;20043;-79
2024/03/06 04:11:38;;;;;;;2.35;2.15;;;2.40;99.90;;;;;;4966322;28;20038;-78
2024/03/06 04:14:06;;;;;;;2.70;1.63;;;2.40;99.90;;;;;;4965206;28;20911;-76
2024/03/06 04:16:33;;;;;;;1.27;1.17;;;2.30;99.90;;;;;;4970043;28;20392;-78
2024/03/06 04:18:59;;;;;;;6.70;2.97;;;2.30;99.90;;;;;;4961436;28;20046;-77
2024/03/06 04:21:25;;;;;;;13.95;5.43;;;2.20;99.90;;;;;;4966774;28;20050;-76
2024/03/06 04:23:51;;;;;;;2.50;2.33;;;2.10;99.90;;;;;;4965964;28;20392;-79
2024/03/06 04:26:17;;;;;;;6.68;5.85;;;2.20;99.90;;;;;;4967394;28;20056;-78
2024/03/06 04:28:44;;;;;;;3.33;1.58;;;2.10;99.90;;;;;;4963285;28;20468;-78
2024/03/06 04:31:10;;;;;;;5.07;2.35;;;2.10;99.90;;;;;;4963080;28;20037;-78
2024/03/06 04:33:36;;;;;;;1.58;1.13;;;2.20;99.90;;;;;;4961999;28;20365;-78
2024/03/06 04:36:07;;;;;;;15.88;1.13;;;2.10;99.90;;;;;;4963373;28;20491;-77
2024/03/06 04:38:33;;;;;;;0.20;0.20;;;2.10;99.90;;;;;;4962950;28;20477;-78
2024/03/06 04:40:59;;;;;;;2.53;0.77;;;2.20;99.90;;;;;;4947832;28;20047;-78
2024/03/06 04:43:25;;;;;;;0.60;0.60;;;2.20;99.90;;;;;;4965250;28;20044;-78
2024/03/06 04:45:51;;;;;;;0.30;0.30;;;2.30;99.90;;;;;;4961146;28;20373;-79
2024/03/06 04:48:17;;;;;;;3.13;1.95;;;2.30;99.90;;;;;;4954319;28;20039;-78
2024/03/06 04:50:44;;;;;;;0.30;0.30;;;2.30;99.90;;;;;;4957363;28;20047;-78
2024/03/06 04:53:11;;;;;;;0.70;0.70;;;2.40;99.90;;;;;;4966607;28;20036;-79
2024/03/06 04:55:38;;;;;;;0.90;0.90;;;2.50;99.90;;;;;;4966580;28;20035;-79
2024/03/06 04:58:04;;;;;;;1.05;0.75;;;2.50;99.90;;;;;;4962446;28;20461;-77
2024/03/06 05:00:30;;;;;;;0.82;0.82;;;2.50;99.90;;;;;;4959555;28;20381;-78
2024/03/06 05:02:57;;;;;;;0.47;0.47;;;2.50;99.90;;;;;;4958415;28;20031;-81
2024/03/06 05:05:24;;;;;;;0.40;0.40;;;2.40;99.90;;;;;;4963927;28;20624;-82
2024/03/06 05:07:51;;;;;;;1.30;1.20;;;2.40;99.90;;;;;;4965275;28;20030;-82
2024/03/06 05:10:18;;;;;;;1.10;0.95;;;2.40;99.90;;;;;;4965070;28;20053;-81
2024/03/06 05:12:44;;;;;;;0.65;0.65;;;2.40;99.90;;;;;;4963512;28;20385;-81
2024/03/06 05:15:11;;;;;;;4.78;1.23;;;2.40;99.90;;;;;;4951012;28;20039;-81
2024/03/06 05:17:37;;;;;;;3.58;1.05;;;2.40;99.90;;;;;;4962206;28;20461;-81
2024/03/06 05:20:04;;;;;;;2.17;1.98;;;2.30;99.90;;;;;;4944040;28;20026;-77
2024/03/06 05:22:30;;;;;;;1.27;0.75;;;2.30;99.90;;;;;;4965319;28;20045;-81
2024/03/06 05:24:58;;;;;;;0.85;0.85;;;2.20;99.90;;;;;;4966618;28;20031;-83
2024/03/06 05:27:25;;;;;;;0.85;0.85;;;2.20;99.90;;;;;;4968240;28;20107;-81
2024/03/06 05:29:52;;;;;;;1.02;0.95;;;2.20;99.90;;;;;;4960467;28;20053;-82
2024/03/06 05:32:18;;;;;;;1.75;1.65;;;2.20;99.90;;;;;;4960598;28;20030;-81
2024/03/06 05:34:44;;;;;;;0.75;0.75;;;2.20;99.90;;;;;;4963891;28;20058;-83
2024/03/06 05:37:10;;;;;;;0.93;0.93;;;2.20;99.90;;;;;;4943737;28;20046;-82
2024/03/06 05:39:40;;;;;;;1.05;1.05;;;2.20;99.90;;;;;;4967472;28;20404;-83
2024/03/06 05:42:06;;;;;;;2.60;1.85;;;2.20;99.90;;;;;;4969301;28;20049;-79
2024/03/06 05:44:33;;;;;;;1.02;1.02;;;2.20;99.90;;;;;;4964203;28;20411;-82
2024/03/06 05:47:01;;;;;;;1.73;1.63;;;2.20;99.90;;;;;;4965186;28;20030;-83
2024/03/06 05:49:28;;;;;;;1.55;1.45;;;2.20;99.90;;;;;;4964292;28;20053;-82
2024/03/06 05:51:54;;;;;;;1.02;1.02;;;2.30;99.90;;;;;;4968692;28;20598;-83
2024/03/06 05:54:21;;;;;;;0.45;0.45;;;2.40;99.90;;;;;;4971040;28;20031;-83
2024/03/06 05:56:51;;;;;;;0.28;0.28;;;2.50;99.90;;;;;;4957552;28;20476;-80
2024/03/06 05:59:18;;;;;;;5.15;1.35;;;2.50;99.90;;;;;;4972847;28;20034;-83
2024/03/06 06:01:44;;;;;;;2.17;1.67;;;2.60;99.90;;;;;;4967355;28;20045;-83
2024/03/06 06:04:13;;;;;;;0.85;0.85;;;2.60;99.90;;;;;;4963473;28;20031;-82
2024/03/06 06:06:40;;;;;;;0.73;0.63;;;2.60;99.90;;;;;;4970689;28;20042;-83
2024/03/06 06:09:06;;;;;;;0.90;0.82;;;2.60;99.90;;;;;;4966276;28;20408;-79
2024/03/06 06:11:35;;;;;;;0.20;0.20;;;2.60;99.90;;;;;;4971050;28;20042;-81
2024/03/06 06:14:02;;;;;;;0.40;0.40;;;2.60;99.90;;;;;;4956376;28;20043;-80
2024/03/06 06:16:35;;;;;;;1.83;1.25;;;2.70;99.90;;;;;;4962391;28;20032;-80
2024/03/06 06:19:01;;;;;;;0.85;0.80;;;2.70;99.90;;;;;;4956400;28;20054;-80
2024/03/06 06:21:27;;;;;;;0.65;0.65;;;2.70;99.90;;;;;;4964774;28;20031;-81
2024/03/06 06:23:54;;;;;;;1.05;1.05;;;2.80;99.90;;;;;;4969822;28;20035;-80
2024/03/06 06:26:20;;;;;;;1.55;1.45;;;2.80;99.90;;;;;;4968078;28;20393;-79
2024/03/06 06:28:46;;;;;;;2.28;1.77;;;2.80;99.90;;;;;;4966844;28;20039;-79
2024/03/06 06:31:12;;;;;;;0.63;0.63;;;2.90;99.90;;;;;;4955239;28;20519;-80
2024/03/06 06:33:39;;;;;;;3.13;2.70;;;2.90;99.90;;;;;;4960515;28;20039;-80
2024/03/06 06:36:05;;;;;;;1.23;1.13;;;3.00;99.90;;;;;;4946039;28;20039;-78
2024/03/06 06:38:31;;;;;;;2.53;2.33;;;3.00;99.90;;;;;;4968046;28;20034;-81
2024/03/06 06:40:58;;;;;;;1.80;1.70;;;3.10;94.40;;;;;;4967598;28;20034;-79
2024/03/06 06:43:24;;;;;;;1.88;1.77;;;3.10;91.80;;;;;;4971369;28;20058;-80
2024/03/06 06:45:50;;;;;;;2.00;1.23;;;3.20;94.20;;;;;;4967377;28;20027;-79
2024/03/06 06:48:17;;;;;;;2.13;1.98;;;3.30;95.20;;;;;;4983709;28;20041;-79
2024/03/06 06:50:43;;;;;;;5.32;2.05;;;3.40;90.70;;;;;;4984001;28;20035;-80
2024/03/06 06:53:09;;;;;;;1.55;1.45;;;3.50;50.50;;;;;;4957908;28;20039;-79
2024/03/06 06:55:36;;;;;;;1.17;1.15;;;3.60;4.00;;;;;;4971720;28;20361;-80
2024/03/06 06:58:02;;;;;;;1.50;1.40;;;3.70;1.00;;;;;;4969415;28;20031;-81
2024/03/06 07:00:30;;;;;;;1.50;1.40;;;3.80;1.00;;;;;;4961096;28;20038;-81
2024/03/06 07:02:58;;;;;;;0.75;0.75;;;3.90;1.00;;;;;;4964963;28;20038;-81
2024/03/06 07:05:24;;;;;;;3.33;3.03;;;4.00;1.00;;;;;;4968256;28;20054;-81
2024/03/06 07:07:50;;;;;;;3.30;2.05;;;4.20;99.90;;;;;;4966982;28;20034;-81
2024/03/06 07:10:17;;;;;;;0.73;0.73;;;4.40;99.90;;;;;;4966456;28;20404;-81
2024/03/06 07:12:43;;;;;;;1.58;1.48;;;4.50;99.90;;;;;;4967816;28;20037;-81
2024/03/06 07:15:09;;;;;;;1.70;1.42;;;4.70;99.90;;;;;;4966488;28;20030;-78
2024/03/06 07:17:35;;;;;;;1.83;1.23;;;4.70;99.90;;;;;;4961456;28;20031;-80
2024/03/06 07:20:02;;;;;;;2.17;0.90;;;4.70;99.90;;;;;;4964410;28;20053;-79
2024/03/06 07:22:28;;;;;;;1.58;1.48;;;4.80;99.90;;;;;;4966489;28;20222;-86
2024/03/06 07:24:54;;;;;;;0.90;0.88;;;4.90;99.90;;;;;;4967613;28;20398;-83
2024/03/06 07:27:21;;;;;;;1.27;1.20;;;4.90;99.90;;;;;;4968258;28;20393;-82
2024/03/06 07:29:47;;;;;;;1.50;1.40;;;4.90;99.90;;;;;;4964569;28;20034;-83
2024/03/06 07:32:13;;;;;;;2.00;1.88;;;5.00;99.90;;;;;;4966800;28;20031;-81
2024/03/06 07:34:39;;;;;;;1.15;1.05;;;5.10;99.90;;;;;;4965092;28;20499;-81
2024/03/06 07:37:05;;;;;;;3.85;2.00;;;5.20;58.90;;;;;;4954106;28;20469;-81
2024/03/06 07:39:32;;;;;;;2.38;1.85;;;5.20;24.70;;;;;;4965894;28;20039;-82
2024/03/06 07:41:58;;;;;;;4.00;2.60;;;5.30;1.00;;;;;;4948181;28;20054;-82
2024/03/06 07:44:24;;;;;;;2.10;1.15;;;5.30;1.00;;;;;;4930352;28;20054;-80
2024/03/06 07:46:50;;;;;;;3.50;2.42;;;5.50;1.00;;;;;;4963073;28;20420;-80
2024/03/06 07:49:17;;;;;;;1.95;1.17;;;5.70;1.00;;;;;;4962454;28;20035;-79
2024/03/06 07:51:43;;;;;;;1.05;1.05;;;5.70;1.00;;;;;;4967550;28;20046;-80
2024/03/06 07:54:09;;;;;;;1.75;1.50;;;5.90;1.00;;;;;;4967794;28;20031;-80
2024/03/06 07:56:35;;;;;;;1.90;1.77;;;6.00;1.00;;;;;;4967096;28;20038;-80
2024/03/06 07:59:01;;;;;;;0.73;0.73;;;6.10;1.00;;;;;;4966512;28;20456;-79
2024/03/06 08:01:28;;;;;;;0.85;0.85;;;6.10;1.00;;;;;;4963823;28;20039;-78
2024/03/06 08:03:55;;;;;;;0.68;0.68;;;6.20;1.00;;;;;;4952049;28;20055;-79
2024/03/06 08:06:21;;;;;;;1.08;1.02;;;6.10;1.00;;;;;;4965676;28;20037;-79
2024/03/06 08:08:47;;;;;;;2.08;1.38;;;6.30;1.00;;;;;;4966415;28;20032;-78
2024/03/06 08:11:14;;;;;;;1.23;1.13;;;6.30;1.00;;;;;;4965683;28;20050;-77
2024/03/06 08:13:41;;;;;;;0.60;0.60;;;6.30;1.00;;;;;;4964926;28;20034;-78
2024/03/06 08:16:08;;;;;;;0.60;0.60;;;6.30;1.00;;;;;;4960629;28;20031;-78
2024/03/06 08:18:36;;;;;;;1.00;0.90;;;6.30;1.00;;;;;;4963322;28;20394;-78
2024/03/06 08:21:06;;;;;;;0.77;0.77;;;6.40;1.00;;;;;;4962931;28;20038;-78
2024/03/06 08:23:33;;;;;;;0.52;0.52;;;6.40;1.00;;;;;;4966528;28;20031;-78
2024/03/06 08:26:00;;;;;;;0.38;0.38;;;6.40;1.00;;;;;;4967898;28;20389;-78
2024/03/06 08:28:26;;;;;;;0.90;0.90;;;6.50;99.90;;;;;;4965837;28;20034;-79
2024/03/06 08:30:52;;;;;;;0.30;0.30;;;6.60;1.00;;;;;;4962745;28;20047;-79
2024/03/06 08:33:20;;;;;;;0.57;0.57;;;6.70;99.90;;;;;;4959499;28;20031;-78
2024/03/06 08:35:47;;;;;;;5.15;0.70;;;7.00;99.90;;;;;;4965489;28;20046;-79
2024/03/06 08:38:13;;;;;;;1.02;0.93;;;7.10;99.90;;;;;;4966868;28;20054;-78
2024/03/06 08:40:41;;;;;;;1.65;0.30;;;7.00;99.90;;;;;;4967409;28;20034;-78
2024/03/06 08:43:08;;;;;;;0.43;0.43;;;7.20;99.90;;;;;;4967174;28;20065;-78
2024/03/06 08:45:35;;;;;;;1.08;0.80;;;7.40;99.90;;;;;;4961358;28;20101;-79
2024/03/06 08:48:01;;;;;;;0.30;0.30;;;7.50;99.90;;;;;;4964272;28;20050;-79
2024/03/06 08:50:28;;;;;;;2.47;0.75;;;7.80;99.90;;;;;;4959324;28;20082;-79
2024/03/06 08:52:55;;;;;;;0.30;0.30;;;8.00;99.90;;;;;;4967355;28;20465;-79
2024/03/06 08:55:21;;;;;;;1.08;0.90;;;8.00;88.70;;;;;;4966610;28;20035;-80
2024/03/06 08:57:47;;;;;;;1.08;0.77;;;8.10;98.10;;;;;;4964095;28;20396;-79
2024/03/06 09:00:14;;;;;;;0.52;0.52;;;7.90;72.70;;;;;;4961715;28;20054;-78
2024/03/06 09:02:40;;;;;;;0.68;0.68;;;7.90;99.90;;;;;;4959804;28;20039;-79
2024/03/06 09:05:10;;;;;;;1.02;0.63;;;8.10;99.90;;;;;;4964828;28;20039;-78
2024/03/06 09:07:38;;;;;;;1.05;0.38;;;8.20;58.70;;;;;;4965269;28;20024;-79
2024/03/06 09:10:08;;;;;;;5.72;0.77;;;8.30;60.50;;;;;;4964784;28;20031;-79
2024/03/06 09:12:34;;;;;;;0.65;0.35;;;8.30;40.90;;;;;;4967853;28;20038;-79
2024/03/06 09:15:01;;;;;;;0.47;0.47;;;8.30;38.90;;;;;;4966362;28;20035;-80
2024/03/06 09:17:28;;;;;;;0.73;0.73;;;8.40;15.40;;;;;;4964654;28;20038;-80
2024/03/06 09:19:54;;;;;;;1.05;0.98;;;8.60;1.00;;;;;;4967383;28;20054;-80
2024/03/06 09:22:20;;;;;;;0.47;0.47;;;8.60;1.00;;;;;;4965690;28;20428;-80
2024/03/06 09:24:48;;;;;;;4.85;2.47;;;8.50;1.00;;;;;;4970559;28;20035;-79
2024/03/06 09:27:17;;;;;;;0.20;0.20;;;8.30;1.00;;;;;;4967143;28;20031;-79
2024/03/06 09:29:44;;;;;;;0.63;0.40;;;8.20;27.40;;;;;;4967006;28;20393;-80
2024/03/06 09:32:12;;;;;;;0.73;0.73;;;8.20;41.90;;;;;;4965140;28;20034;-80
2024/03/06 09:34:39;;;;;;;0.25;0.25;;;8.50;5.20;;;;;;4963050;28;20038;-80
2024/03/06 09:37:05;;;;;;;0.65;0.65;;;8.70;1.00;;;;;;4973352;28;20039;-78
2024/03/06 09:39:31;;;;;;;1.08;0.68;;;9.30;1.00;;;;;;4961246;28;20038;-78
2024/03/06 09:41:59;;;;;;;0.45;0.45;;;9.20;1.00;;;;;;4955615;28;20049;-79
2024/03/06 09:44:25;;;;;;;0.38;0.38;;;9.20;1.00;;;;;;4966354;28;20066;-80
2024/03/06 09:46:53;;;;;;;1.05;0.95;;;9.10;1.00;;;;;;4966586;28;20042;-80
2024/03/06 09:49:19;;;;;;;0.70;0.47;;;9.00;1.00;;;;;;4961436;28;20035;-78
2024/03/06 09:51:49;;;;;;;0.52;0.40;;;9.10;1.00;;;;;;4965668;28;20392;-80
2024/03/06 09:54:17;;;;;;;1.83;0.73;;;9.30;1.00;;;;;;4970555;28;20045;-78
2024/03/06 09:56:47;;;;;;;1.40;0.55;;;9.50;1.00;;;;;;4966276;28;20277;-80
2024/03/06 09:59:14;;;;;;;1.75;1.25;;;9.70;99.90;;;;;;4965052;28;20031;-78
2024/03/06 10:02:02;;;;;;;0.40;0.40;;;9.50;99.90;;;;;;4962634;28;20380;-79
2024/03/06 10:04:29;;;;;;;0.57;0.57;;;9.50;1.00;;;;;;4964655;28;20051;-80
2024/03/06 10:06:56;;;;;;;0.52;0.52;;;9.60;1.00;;;;;;4967239;28;20038;-80
2024/03/06 10:09:24;;;;;;;0.55;0.55;;;9.60;99.90;;;;;;4969747;28;20037;-79
2024/03/06 10:11:52;;;;;;;1.95;0.98;;;9.50;99.90;;;;;;4968728;28;20050;-80
2024/03/06 10:14:19;;;;;;;1.10;1.00;;;9.50;99.90;;;;;;4966334;28;20074;-79
2024/03/06 10:17:18;;;;;;;0.80;0.80;;;9.80;99.90;;;;;;4967916;28;20039;-77
2024/03/06 10:19:51;;;;;;;1.35;1.25;;;10.00;99.90;;;;;;4961972;28;20046;-78
2024/03/06 10:22:20;;;;;;;3.35;0.75;;;9.70;99.90;;;;;;4967558;28;20043;-78
2024/03/06 10:24:47;;;;;;;1.02;0.93;;;9.70;99.90;;;;;;4968904;28;20050;-79
2024/03/06 10:27:19;;;;;;;1.25;0.75;;;9.80;99.90;;;;;;4968134;28;20042;-80
2024/03/06 10:29:45;;;;;;;0.40;0.40;;;10.10;99.90;;;;;;4972783;28;20054;-78
2024/03/06 10:32:18;;;;;;;1.58;1.17;;;10.20;99.90;;;;;;4966010;28;20035;-79
2024/03/06 10:34:45;;;;;;;0.60;0.60;;;10.20;99.90;;;;;;4966913;28;20042;-79
2024/03/06 10:37:11;;;;;;;3.05;2.05;;;10.20;99.90;;;;;;4967781;28;20031;-80
2024/03/06 10:39:44;;;;;;;0.75;0.75;;;10.30;99.90;;;;;;4968635;28;20037;-80
2024/03/06 10:42:13;;;;;;;1.27;1.17;;;10.10;99.90;;;;;;4967702;28;20054;-79
2024/03/06 10:44:55;;;;;;;1.00;0.90;;;10.40;99.90;;;;;;4964801;28;20397;-80
2024/03/06 10:47:22;;;;;;;2.67;1.50;;;10.30;99.90;;;;;;4965822;28;20031;-78
2024/03/06 10:49:50;;;;;;;5.78;1.85;;;10.50;99.90;;;;;;4964361;28;20037;-76
2024/03/06 10:52:19;;;;;;;1.42;1.33;;;10.30;99.90;;;;;;4966042;28;20038;-77
2024/03/06 10:54:46;;;;;;;3.92;0.75;;;10.10;99.90;;;;;;4969685;28;20098;-78
2024/03/06 10:57:13;;;;;;;0.75;0.75;;;10.20;99.90;;;;;;4948580;28;20039;-77
2024/03/06 10:59:41;;;;;;;1.05;0.98;;;10.50;99.90;;;;;;4962106;28;20031;-76
2024/03/06 11:02:09;;;;;;;0.80;0.70;;;10.80;99.90;;;;;;4962653;28;20039;-77
2024/03/06 11:04:36;;;;;;;25.50;2.17;;;10.90;99.90;;;;;;4965191;28;20527;-78
2024/03/06 11:07:04;;;;;;;2.17;1.40;;;11.20;99.90;;;;;;4966414;28;20041;-77
2024/03/06 11:09:41;;;;;;;2.53;1.23;;;11.10;86.00;;;;;;4965522;28;20038;-78
2024/03/06 11:12:07;;;;;;;0.65;0.65;;;11.10;99.90;;;;;;4968779;28;20032;-76
2024/03/06 11:14:40;;;;;;;2.40;1.00;;;10.80;99.90;;;;;;4964345;28;20392;-78
2024/03/06 11:17:09;;;;;;;1.58;1.30;;;10.80;99.90;;;;;;4945331;28;20039;-78
2024/03/06 11:19:59;;;;;;;0.47;0.47;;;10.70;99.90;;;;;;4962945;28;20035;-75
2024/03/06 11:22:58;;;;;;;0.80;0.80;;;10.50;99.90;;;;;;4966192;28;20051;-75
2024/03/06 11:25:46;;;;;;;1.73;0.88;;;10.40;99.90;;;;;;4964177;28;20392;-75
2024/03/06 11:28:20;;;;;;;6.68;2.20;;;10.70;99.90;;;;;;4963715;28;20401;-75
2024/03/06 11:30:47;;;;;;;8.45;1.23;;;10.90;99.90;;;;;;4962947;28;20043;-75
2024/03/06 11:33:17;;;;;;;0.82;0.70;;;11.10;46.40;;;;;;4962069;28;20035;-75
2024/03/06 11:36:23;;;;;;;3.13;2.22;;;11.20;16.00;;;;;;4968433;28;20473;-75
2024/03/06 11:38:56;;;;;;;1.40;0.98;;;11.10;54.20;;;;;;4964277;28;20050;-75
2024/03/06 11:41:23;;;;;;;1.85;1.20;;;11.10;32.80;;;;;;4965001;28;20043;-75
2024/03/06 11:43:52;;;;;;;0.77;0.50;;;11.20;42.60;;;;;;4963042;28;20058;-75
2024/03/06 11:46:20;;;;;;;1.13;1.13;;;11.30;49.90;;;;;;4956515;28;20039;-74
2024/03/06 11:48:56;;;;;;;3.55;2.35;;;11.40;46.30;;;;;;4965592;28;20396;-76
2024/03/06 11:51:23;;;;;;;1.23;1.13;;;11.30;83.00;;;;;;4962799;28;20035;-75
2024/03/06 11:53:53;;;;;;;1.23;1.20;;;11.30;27.20;;;;;;4967375;28;20031;-75
2024/03/06 11:56:20;;;;;;;5.65;1.85;;;11.40;1.60;;;;;;4966021;28;20042;-76
2024/03/06 11:58:47;;;;;;;4.00;1.83;;;11.40;57.60;;;;;;4967141;28;20038;-76
2024/03/06 12:01:14;;;;;;;1.13;1.02;;;11.50;25.60;;;;;;4947319;28;20531;-76
2024/03/06 12:03:41;;;;;;;0.65;0.65;;;11.60;1.00;;;;;;4961391;28;20038;-75
2024/03/06 12:06:07;;;;;;;1.10;1.10;;;11.40;1.00;;;;;;4962406;28;20027;-75
2024/03/06 12:08:36;;;;;;;0.82;0.75;;;11.50;1.00;;;;;;4964734;28;20465;-76
2024/03/06 12:11:05;;;;;;;1.05;1.02;;;11.30;9.00;;;;;;4962659;28;20031;-74
2024/03/06 12:13:32;;;;;;;4.68;2.13;;;11.00;4.60;;;;;;4936208;28;20047;-75
2024/03/06 12:15:58;;;;;;;3.65;1.45;;;11.00;35.60;;;;;;4959695;28;20035;-75
2024/03/06 12:18:24;;;;;;;2.95;1.40;;;11.10;6.90;;;;;;4959595;28;20488;-75
2024/03/06 12:20:51;;;;;;;2.17;1.58;;;11.20;1.00;;;;;;4944701;28;20039;-76
2024/03/06 12:23:26;;;;;;;1.33;0.85;;;11.20;1.00;;;;;;4971650;28;20042;-76
2024/03/06 12:26:10;;;;;;;3.70;0.93;;;11.20;1.00;;;;;;4971513;28;20038;-75
2024/03/06 12:28:38;;;;;;;1.30;1.20;;;11.20;1.00;;;;;;4961836;28;20469;-75
2024/03/06 12:31:05;;;;;;;4.32;2.42;;;11.10;1.00;;;;;;4962419;28;20046;-76
2024/03/06 12:33:33;;;;;;;1.35;0.95;;;11.10;1.00;;;;;;4961379;28;20035;-74
2024/03/06 12:36:05;;;;;;;1.10;1.05;;;11.10;1.00;;;;;;4961599;28;20026;-76
2024/03/06 12:38:31;;;;;;;0.85;0.80;;;11.10;1.00;;;;;;4965592;28;20111;-75
2024/03/06 12:40:58;;;;;;;4.80;1.20;;;11.10;1.00;;;;;;4952891;28;20050;-75
2024/03/06 12:43:28;;;;;;;1.33;1.25;;;11.10;1.00;;;;;;4952855;28;20062;-74
2024/03/06 12:45:56;;;;;;;1.83;1.70;;;10.90;1.00;;;;;;4966821;28;20034;-75
2024/03/06 12:48:25;;;;;;;2.47;2.17;;;10.70;44.40;;;;;;4957358;28;20035;-75
2024/03/06 12:50:53;;;;;;;2.00;1.77;;;10.90;58.20;;;;;;4966542;28;20038;-76
2024/03/06 12:53:21;;;;;;;1.17;1.08;;;10.80;15.00;;;;;;4967006;28;20038;-75
2024/03/06 12:55:48;;;;;;;1.92;1.75;;;10.80;28.50;;;;;;4966941;28;20480;-75
2024/03/06 12:58:14;;;;;;;2.17;1.85;;;10.60;22.90;;;;;;4963742;28;20031;-75
2024/03/06 13:00:41;;;;;;;6.63;1.02;;;10.60;42.30;;;;;;4955660;28;20031;-76